Kinrikimaru — JL6545 — position and weather

sailwx.info

Track history (hours):
 
Tides and Currents Weather Stations Pressure Air Temp Water Temp Dewpoint Dewpoint Depression Visibility Wind Speed Wind Dir Waves Ship Positions

Kinrikimaru

Last reported at 2014-Sep-15 06:32 UTC. Time now 2014-Sep-22 22:24 UTC.
Position N 35°57' E 140°42'.

Length 76 m; draft 3.5 m.

Type: Cargo ship. MMSI: 431500615.

Date/timePositionNaut miles runAvg speedWind from/ knotsBaromVisibWave heightAir tempDewpointWater temp
2014-Sep-15 06:32N 35°57' E 140°42'3 0.7
2014-Sep-15 02:16N 35°60' E 140°42'0 0.0
2014-Sep-14 23:12N 35°60' E 140°42'0 0.0
2014-Sep-14 22:24N 35°60' E 140°42'0 0.1
2014-Sep-14 21:33N 35°60' E 140°42'0 0.0
2014-Sep-14 20:33N 35°60' E 140°42'0 0.0
2014-Sep-14 19:30N 35°60' E 140°42'0 0.0
2014-Sep-14 18:18N 35°60' E 140°42'0 0.0
2014-Sep-14 17:24N 35°60' E 140°42'0 0.0
2014-Sep-14 16:33N 35°60' E 140°42'0 0.0
2014-Sep-14 15:18N 35°60' E 140°42'0 0.0
2014-Sep-14 14:21N 35°60' E 140°42'0 0.0
2014-Sep-14 13:30N 35°60' E 140°42'4 4.3
2014-Sep-14 12:33N 35°55' E 140°41'0 0.0
2014-Sep-14 06:31N 35°56' E 140°42'3 2.9
2014-Sep-14 05:29N 35°58' E 140°43'78 9.9
2014-Sep-13 21:33N 34°50' E 139°56'248 9.9
2014-Sep-12 20:33N 34°03' E 135°01'1211.6
2014-Sep-12 19:33N 34°14' E 135°05'2 1.8
2014-Sep-12 18:33N 34°15' E 135°07'0 0.0
2014-Sep-12 17:33N 34°15' E 135°07'0 0.0
2014-Sep-12 16:33N 34°15' E 135°07'0 0.0
2014-Sep-12 15:33N 34°15' E 135°07'0 0.0
2014-Sep-12 14:33N 34°15' E 135°07'0 0.0
2014-Sep-12 13:33N 34°15' E 135°07'0 0.0
2014-Sep-12 12:33N 34°15' E 135°07'0 0.0
2014-Sep-12 11:33N 34°15' E 135°07'0 0.0
2014-Sep-12 10:33N 34°15' E 135°07'0 0.0
2014-Sep-12 09:33N 34°15' E 135°07'0 0.0
2014-Sep-12 08:33N 34°15' E 135°07'0 0.0
2014-Sep-12 07:33N 34°15' E 135°07'1 1.3
2014-Sep-12 06:31N 34°15' E 135°05'0 0.0
2014-Sep-12 05:31N 34°15' E 135°05'0 0.0
2014-Sep-12 04:31N 34°15' E 135°05'0 0.0
2014-Sep-12 03:28N 34°15' E 135°05'0 0.1
2014-Sep-12 02:31N 34°15' E 135°05'0 0.0
2014-Sep-12 01:31N 34°15' E 135°05'0 0.0
2014-Sep-12 00:28N 34°15' E 135°05'0 0.1
2014-Sep-11 23:31N 34°15' E 135°05'0 0.0
2014-Sep-11 22:31N 34°15' E 135°05'0 0.0
2014-Sep-11 21:31N 34°15' E 135°05'0 0.0
2014-Sep-11 20:31N 34°15' E 135°05'0 0.0
2014-Sep-11 19:31N 34°15' E 135°05'0 0.0
2014-Sep-11 18:31N 34°15' E 135°05'6 6.1
2014-Sep-11 17:33N 34°16' E 134°58'1313.3
2014-Sep-11 16:32N 34°30' E 135°01'  
2014-Sep-07 23:30N 34°00' E 134°37'19 1.2
2014-Sep-07 08:33N 34°12' E 134°55'1110.9
2014-Sep-07 07:33N 34°22' E 134°59'1212.0
2014-Sep-07 06:33N 34°33' E 135°02'1010.2
2014-Sep-07 05:33N 34°38' E 134°51'  
Track history (hours):
 
Tides and Currents Weather Stations Pressure Air Temp Water Temp Dewpoint Dewpoint Depression Visibility Wind Speed Wind Dir Waves Ship Positions

Kinrikimaru

Last reported at 2014-Sep-15 06:32 UTC. Time now 2014-Sep-22 22:24 UTC.
Position N 35°57' E 140°42'.

Length 76 m; draft 3.5 m.

Type: Cargo ship. MMSI: 431500615.

Date/timePositionNaut miles runAvg speedWind from/ knotsBaromVisibWave heightAir tempDewpointWater temp
2014-Sep-15 06:32N 35°57' E 140°42'3 0.7
2014-Sep-15 02:16N 35°60' E 140°42'0 0.0
2014-Sep-14 23:12N 35°60' E 140°42'0 0.0
2014-Sep-14 22:24N 35°60' E 140°42'0 0.1
2014-Sep-14 21:33N 35°60' E 140°42'0 0.0
2014-Sep-14 20:33N 35°60' E 140°42'0 0.0
2014-Sep-14 19:30N 35°60' E 140°42'0 0.0
2014-Sep-14 18:18N 35°60' E 140°42'0 0.0
2014-Sep-14 17:24N 35°60' E 140°42'0 0.0
2014-Sep-14 16:33N 35°60' E 140°42'0 0.0
2014-Sep-14 15:18N 35°60' E 140°42'0 0.0
2014-Sep-14 14:21N 35°60' E 140°42'0 0.0
2014-Sep-14 13:30N 35°60' E 140°42'4 4.3
2014-Sep-14 12:33N 35°55' E 140°41'0 0.0
2014-Sep-14 06:31N 35°56' E 140°42'3 2.9
2014-Sep-14 05:29N 35°58' E 140°43'78 9.9
2014-Sep-13 21:33N 34°50' E 139°56'248 9.9
2014-Sep-12 20:33N 34°03' E 135°01'1211.6
2014-Sep-12 19:33N 34°14' E 135°05'2 1.8
2014-Sep-12 18:33N 34°15' E 135°07'0 0.0
2014-Sep-12 17:33N 34°15' E 135°07'0 0.0
2014-Sep-12 16:33N 34°15' E 135°07'0 0.0
2014-Sep-12 15:33N 34°15' E 135°07'0 0.0
2014-Sep-12 14:33N 34°15' E 135°07'0 0.0
2014-Sep-12 13:33N 34°15' E 135°07'0 0.0
2014-Sep-12 12:33N 34°15' E 135°07'0 0.0
2014-Sep-12 11:33N 34°15' E 135°07'0 0.0
2014-Sep-12 10:33N 34°15' E 135°07'0 0.0
2014-Sep-12 09:33N 34°15' E 135°07'0 0.0
2014-Sep-12 08:33N 34°15' E 135°07'0 0.0
2014-Sep-12 07:33N 34°15' E 135°07'1 1.3
2014-Sep-12 06:31N 34°15' E 135°05'0 0.0
2014-Sep-12 05:31N 34°15' E 135°05'0 0.0
2014-Sep-12 04:31N 34°15' E 135°05'0 0.0
2014-Sep-12 03:28N 34°15' E 135°05'0 0.1
2014-Sep-12 02:31N 34°15' E 135°05'0 0.0
2014-Sep-12 01:31N 34°15' E 135°05'0 0.0
2014-Sep-12 00:28N 34°15' E 135°05'0 0.1
2014-Sep-11 23:31N 34°15' E 135°05'0 0.0
2014-Sep-11 22:31N 34°15' E 135°05'0 0.0
2014-Sep-11 21:31N 34°15' E 135°05'0 0.0
2014-Sep-11 20:31N 34°15' E 135°05'0 0.0
2014-Sep-11 19:31N 34°15' E 135°05'0 0.0
2014-Sep-11 18:31N 34°15' E 135°05'6 6.1
2014-Sep-11 17:33N 34°16' E 134°58'1313.3
2014-Sep-11 16:32N 34°30' E 135°01'  
2014-Sep-07 23:30N 34°00' E 134°37'19 1.2
2014-Sep-07 08:33N 34°12' E 134°55'1110.9
2014-Sep-07 07:33N 34°22' E 134°59'1212.0
2014-Sep-07 06:33N 34°33' E 135°02'1010.2
2014-Sep-07 05:33N 34°38' E 134°51'  

Dump ship's entire track history